KLHM/LHM METAR and TAF weather

Enter ICAO airport designator
Station Type Date Time Source
KLHM METAR 2018/12/12 07:55 UTC NOAA

KLHM 120755Z AUTO 10005KT 10SM BKN065 OVC080 06/05 A3021 RMK AO1


Station Type Date Time Source
KLHM Decoded METAR 2018/12/12 07:55 UTC NOAA

Station name not available
Dec 12, 2018 - 02:55 AM EST / 2018.12.12 0755 UTC
Wind: from the E (100 degrees) at 6 MPH (5 KT):0
Visibility: 10 mile(s):0
Sky conditions: overcast
Temperature: 42 F (6 C)
Dew Point: 41 F (5 C)
Relative Humidity: 93%
Pressure (altimeter): 30.21 in. Hg (1023 hPa)
ob: KLHM 120755Z AUTO 10005KT 10SM BKN065 OVC080 06/05 A3021 RMK AO1
cycle: 8

Station Type Date Time Source
KLHM TAF UTC NOAA

Error!


Example: see airport list